sensor_id;sensor_type;location;lat;lon;timestamp;P1;durP1;ratioP1;P2;durP2;ratioP2
3565;SDS011;1797;51.844;7.684;2023-05-07T00:00:33;1.90;;;0.98;;
3565;SDS011;1797;51.844;7.684;2023-05-07T00:02:59;0.40;;;0.40;;
3565;SDS011;1797;51.844;7.684;2023-05-07T00:05:24;1.00;;;0.80;;
3565;SDS011;1797;51.844;7.684;2023-05-07T00:07:50;2.60;;;1.77;;
3565;SDS011;1797;51.844;7.684;2023-05-07T00:10:17;2.15;;;1.73;;
3565;SDS011;1797;51.844;7.684;2023-05-07T00:12:43;0.55;;;0.55;;
3565;SDS011;1797;51.844;7.684;2023-05-07T00:15:09;1.05;;;0.70;;
3565;SDS011;1797;51.844;7.684;2023-05-07T00:17:35;2.30;;;2.10;;
3565;SDS011;1797;51.844;7.684;2023-05-07T00:20:02;1.80;;;0.90;;
3565;SDS011;1797;51.844;7.684;2023-05-07T00:22:28;0.70;;;0.70;;
3565;SDS011;1797;51.844;7.684;2023-05-07T00:24:55;0.50;;;0.50;;
3565;SDS011;1797;51.844;7.684;2023-05-07T00:27:21;0.90;;;0.80;;
3565;SDS011;1797;51.844;7.684;2023-05-07T00:29:47;0.65;;;0.65;;
3565;SDS011;1797;51.844;7.684;2023-05-07T00:32:12;1.48;;;1.38;;
3565;SDS011;1797;51.844;7.684;2023-05-07T00:34:38;0.70;;;0.40;;
3565;SDS011;1797;51.844;7.684;2023-05-07T00:37:04;1.20;;;1.10;;
3565;SDS011;1797;51.844;7.684;2023-05-07T00:39:32;1.45;;;1.13;;
3565;SDS011;1797;51.844;7.684;2023-05-07T00:41:58;1.00;;;0.73;;
3565;SDS011;1797;51.844;7.684;2023-05-07T00:44:24;3.47;;;0.98;;
3565;SDS011;1797;51.844;7.684;2023-05-07T00:46:50;1.10;;;0.60;;
3565;SDS011;1797;51.844;7.684;2023-05-07T00:49:16;1.20;;;1.10;;
3565;SDS011;1797;51.844;7.684;2023-05-07T00:51:42;0.75;;;0.70;;
3565;SDS011;1797;51.844;7.684;2023-05-07T00:54:08;0.90;;;0.90;;
3565;SDS011;1797;51.844;7.684;2023-05-07T00:56:34;1.80;;;1.10;;
3565;SDS011;1797;51.844;7.684;2023-05-07T00:59:01;0.70;;;0.70;;
3565;SDS011;1797;51.844;7.684;2023-05-07T01:01:28;1.30;;;1.20;;
3565;SDS011;1797;51.844;7.684;2023-05-07T01:03:53;0.70;;;0.70;;
3565;SDS011;1797;51.844;7.684;2023-05-07T01:06:19;0.90;;;0.90;;
3565;SDS011;1797;51.844;7.684;2023-05-07T01:08:46;1.40;;;1.00;;
3565;SDS011;1797;51.844;7.684;2023-05-07T01:11:13;2.00;;;1.00;;
3565;SDS011;1797;51.844;7.684;2023-05-07T01:13:39;1.10;;;1.00;;
3565;SDS011;1797;51.844;7.684;2023-05-07T01:16:06;1.33;;;1.23;;
3565;SDS011;1797;51.844;7.684;2023-05-07T01:18:34;2.45;;;1.40;;
3565;SDS011;1797;51.844;7.684;2023-05-07T01:21:00;1.70;;;1.37;;
3565;SDS011;1797;51.844;7.684;2023-05-07T01:23:28;1.52;;;1.00;;
3565;SDS011;1797;51.844;7.684;2023-05-07T01:25:55;1.80;;;0.90;;
3565;SDS011;1797;51.844;7.684;2023-05-07T01:28:21;2.40;;;1.50;;
3565;SDS011;1797;51.844;7.684;2023-05-07T01:30:49;0.90;;;0.77;;
3565;SDS011;1797;51.844;7.684;2023-05-07T01:33:19;0.90;;;0.90;;
3565;SDS011;1797;51.844;7.684;2023-05-07T01:35:51;6.20;;;1.73;;
3565;SDS011;1797;51.844;7.684;2023-05-07T01:38:18;1.20;;;1.20;;
3565;SDS011;1797;51.844;7.684;2023-05-07T01:40:45;3.00;;;1.58;;
3565;SDS011;1797;51.844;7.684;2023-05-07T01:43:11;3.30;;;0.90;;
3565;SDS011;1797;51.844;7.684;2023-05-07T01:45:37;1.13;;;1.10;;
3565;SDS011;1797;51.844;7.684;2023-05-07T01:48:06;1.88;;;1.77;;
3565;SDS011;1797;51.844;7.684;2023-05-07T01:50:32;2.60;;;1.23;;
3565;SDS011;1797;51.844;7.684;2023-05-07T01:52:59;4.80;;;1.95;;
3565;SDS011;1797;51.844;7.684;2023-05-07T01:55:27;2.00;;;1.70;;
3565;SDS011;1797;51.844;7.684;2023-05-07T01:57:53;1.20;;;1.20;;
3565;SDS011;1797;51.844;7.684;2023-05-07T02:00:18;1.97;;;1.07;;
3565;SDS011;1797;51.844;7.684;2023-05-07T02:02:44;0.77;;;0.77;;
3565;SDS011;1797;51.844;7.684;2023-05-07T02:05:10;0.88;;;0.88;;
3565;SDS011;1797;51.844;7.684;2023-05-07T02:07:36;5.40;;;0.80;;
3565;SDS011;1797;51.844;7.684;2023-05-07T02:10:01;2.40;;;1.00;;
3565;SDS011;1797;51.844;7.684;2023-05-07T02:12:27;1.30;;;1.20;;
3565;SDS011;1797;51.844;7.684;2023-05-07T02:14:53;2.13;;;1.20;;
3565;SDS011;1797;51.844;7.684;2023-05-07T02:17:19;1.27;;;1.17;;
3565;SDS011;1797;51.844;7.684;2023-05-07T02:19:44;2.70;;;1.23;;
3565;SDS011;1797;51.844;7.684;2023-05-07T02:22:10;1.40;;;0.90;;
3565;SDS011;1797;51.844;7.684;2023-05-07T02:24:35;1.90;;;1.50;;
3565;SDS011;1797;51.844;7.684;2023-05-07T02:27:01;2.35;;;1.35;;
3565;SDS011;1797;51.844;7.684;2023-05-07T02:29:28;1.30;;;1.20;;
3565;SDS011;1797;51.844;7.684;2023-05-07T02:31:53;1.50;;;1.30;;
3565;SDS011;1797;51.844;7.684;2023-05-07T02:34:20;0.70;;;0.70;;
3565;SDS011;1797;51.844;7.684;2023-05-07T02:36:46;2.72;;;2.38;;
3565;SDS011;1797;51.844;7.684;2023-05-07T02:39:12;2.40;;;1.80;;
3565;SDS011;1797;51.844;7.684;2023-05-07T02:41:38;2.10;;;1.30;;
3565;SDS011;1797;51.844;7.684;2023-05-07T02:44:04;3.00;;;2.20;;
3565;SDS011;1797;51.844;7.684;2023-05-07T02:46:30;2.17;;;1.10;;
3565;SDS011;1797;51.844;7.684;2023-05-07T02:48:55;0.90;;;0.87;;
3565;SDS011;1797;51.844;7.684;2023-05-07T02:51:21;4.63;;;1.93;;
3565;SDS011;1797;51.844;7.684;2023-05-07T02:53:47;4.60;;;2.30;;
3565;SDS011;1797;51.844;7.684;2023-05-07T02:56:13;1.75;;;1.65;;
3565;SDS011;1797;51.844;7.684;2023-05-07T02:58:39;5.25;;;2.83;;
3565;SDS011;1797;51.844;7.684;2023-05-07T03:01:05;1.20;;;1.10;;
3565;SDS011;1797;51.844;7.684;2023-05-07T03:03:31;2.80;;;1.60;;
3565;SDS011;1797;51.844;7.684;2023-05-07T03:05:56;5.50;;;2.30;;
3565;SDS011;1797;51.844;7.684;2023-05-07T03:08:22;1.10;;;0.80;;
3565;SDS011;1797;51.844;7.684;2023-05-07T03:10:49;1.60;;;1.50;;
3565;SDS011;1797;51.844;7.684;2023-05-07T03:13:15;2.78;;;2.03;;
3565;SDS011;1797;51.844;7.684;2023-05-07T03:15:41;3.00;;;1.20;;
3565;SDS011;1797;51.844;7.684;2023-05-07T03:18:06;1.57;;;1.47;;
3565;SDS011;1797;51.844;7.684;2023-05-07T03:20:32;1.60;;;1.30;;
3565;SDS011;1797;51.844;7.684;2023-05-07T03:22:58;2.30;;;1.73;;
3565;SDS011;1797;51.844;7.684;2023-05-07T03:25:23;1.27;;;1.17;;
3565;SDS011;1797;51.844;7.684;2023-05-07T03:27:49;3.47;;;1.70;;
3565;SDS011;1797;51.844;7.684;2023-05-07T03:30:15;2.30;;;2.17;;
3565;SDS011;1797;51.844;7.684;2023-05-07T03:32:40;3.67;;;2.47;;
3565;SDS011;1797;51.844;7.684;2023-05-07T03:35:06;1.90;;;1.60;;
3565;SDS011;1797;51.844;7.684;2023-05-07T03:37:32;1.40;;;1.27;;
3565;SDS011;1797;51.844;7.684;2023-05-07T03:39:57;7.33;;;2.97;;
3565;SDS011;1797;51.844;7.684;2023-05-07T03:42:23;4.83;;;2.13;;
3565;SDS011;1797;51.844;7.684;2023-05-07T03:44:49;3.20;;;2.00;;
3565;SDS011;1797;51.844;7.684;2023-05-07T03:47:14;2.10;;;1.70;;
3565;SDS011;1797;51.844;7.684;2023-05-07T03:49:40;3.57;;;3.23;;
3565;SDS011;1797;51.844;7.684;2023-05-07T03:52:06;2.63;;;2.43;;
3565;SDS011;1797;51.844;7.684;2023-05-07T03:54:31;2.47;;;2.28;;
3565;SDS011;1797;51.844;7.684;2023-05-07T03:56:57;4.28;;;3.88;;
3565;SDS011;1797;51.844;7.684;2023-05-07T03:59:23;2.60;;;2.30;;
3565;SDS011;1797;51.844;7.684;2023-05-07T04:01:48;3.80;;;2.40;;
3565;SDS011;1797;51.844;7.684;2023-05-07T04:04:14;4.70;;;3.03;;
3565;SDS011;1797;51.844;7.684;2023-05-07T04:06:40;3.10;;;2.10;;
3565;SDS011;1797;51.844;7.684;2023-05-07T04:09:06;4.50;;;2.50;;
3565;SDS011;1797;51.844;7.684;2023-05-07T04:11:32;3.67;;;3.47;;
3565;SDS011;1797;51.844;7.684;2023-05-07T04:13:57;2.08;;;1.98;;
3565;SDS011;1797;51.844;7.684;2023-05-07T04:16:23;1.35;;;1.17;;
3565;SDS011;1797;51.844;7.684;2023-05-07T04:18:48;3.20;;;2.90;;
3565;SDS011;1797;51.844;7.684;2023-05-07T04:21:15;3.83;;;2.30;;
3565;SDS011;1797;51.844;7.684;2023-05-07T04:23:41;3.13;;;2.83;;
3565;SDS011;1797;51.844;7.684;2023-05-07T04:26:07;3.40;;;2.90;;
3565;SDS011;1797;51.844;7.684;2023-05-07T04:28:32;3.00;;;2.13;;
3565;SDS011;1797;51.844;7.684;2023-05-07T04:30:58;4.80;;;2.85;;
3565;SDS011;1797;51.844;7.684;2023-05-07T04:33:24;2.23;;;2.03;;
3565;SDS011;1797;51.844;7.684;2023-05-07T04:35:50;4.87;;;2.77;;
3565;SDS011;1797;51.844;7.684;2023-05-07T04:38:15;3.80;;;2.27;;
3565;SDS011;1797;51.844;7.684;2023-05-07T04:40:41;2.70;;;1.97;;
3565;SDS011;1797;51.844;7.684;2023-05-07T04:43:07;5.77;;;3.80;;
3565;SDS011;1797;51.844;7.684;2023-05-07T04:45:34;7.70;;;3.22;;
3565;SDS011;1797;51.844;7.684;2023-05-07T04:48:00;4.50;;;2.30;;
3565;SDS011;1797;51.844;7.684;2023-05-07T04:50:26;4.30;;;2.10;;
3565;SDS011;1797;51.844;7.684;2023-05-07T04:52:51;3.20;;;2.63;;
3565;SDS011;1797;51.844;7.684;2023-05-07T04:55:17;4.00;;;2.10;;
3565;SDS011;1797;51.844;7.684;2023-05-07T04:57:43;5.15;;;3.30;;
3565;SDS011;1797;51.844;7.684;2023-05-07T05:00:08;3.65;;;2.92;;
3565;SDS011;1797;51.844;7.684;2023-05-07T05:02:35;2.53;;;2.10;;
3565;SDS011;1797;51.844;7.684;2023-05-07T05:05:01;6.13;;;2.80;;
3565;SDS011;1797;51.844;7.684;2023-05-07T05:07:27;6.15;;;3.20;;
3565;SDS011;1797;51.844;7.684;2023-05-07T05:09:53;3.22;;;2.22;;
3565;SDS011;1797;51.844;7.684;2023-05-07T05:12:19;2.30;;;2.10;;
3565;SDS011;1797;51.844;7.684;2023-05-07T05:14:45;11.63;;;3.70;;
3565;SDS011;1797;51.844;7.684;2023-05-07T05:17:10;2.90;;;2.07;;
3565;SDS011;1797;51.844;7.684;2023-05-07T05:19:36;5.87;;;3.47;;
3565;SDS011;1797;51.844;7.684;2023-05-07T05:22:01;8.63;;;4.73;;
3565;SDS011;1797;51.844;7.684;2023-05-07T05:24:28;4.40;;;3.50;;
3565;SDS011;1797;51.844;7.684;2023-05-07T05:26:55;1.50;;;1.40;;
3565;SDS011;1797;51.844;7.684;2023-05-07T05:29:20;3.00;;;2.70;;
3565;SDS011;1797;51.844;7.684;2023-05-07T05:31:46;6.97;;;3.13;;
3565;SDS011;1797;51.844;7.684;2023-05-07T05:34:12;3.47;;;2.20;;
3565;SDS011;1797;51.844;7.684;2023-05-07T05:36:37;2.30;;;2.10;;
3565;SDS011;1797;51.844;7.684;2023-05-07T05:39:03;6.03;;;3.60;;
3565;SDS011;1797;51.844;7.684;2023-05-07T05:41:29;7.70;;;1.77;;
3565;SDS011;1797;51.844;7.684;2023-05-07T05:43:55;4.00;;;2.10;;
3565;SDS011;1797;51.844;7.684;2023-05-07T05:46:21;6.60;;;3.28;;
3565;SDS011;1797;51.844;7.684;2023-05-07T05:48:46;4.53;;;2.70;;
3565;SDS011;1797;51.844;7.684;2023-05-07T05:51:12;5.47;;;2.80;;
3565;SDS011;1797;51.844;7.684;2023-05-07T05:53:37;5.28;;;4.05;;
3565;SDS011;1797;51.844;7.684;2023-05-07T05:56:03;4.30;;;3.20;;
3565;SDS011;1797;51.844;7.684;2023-05-07T05:58:29;3.22;;;2.92;;
3565;SDS011;1797;51.844;7.684;2023-05-07T06:00:55;4.60;;;2.70;;
3565;SDS011;1797;51.844;7.684;2023-05-07T06:03:21;4.10;;;3.70;;
3565;SDS011;1797;51.844;7.684;2023-05-07T06:05:47;5.97;;;4.28;;
3565;SDS011;1797;51.844;7.684;2023-05-07T06:08:13;2.22;;;2.00;;
3565;SDS011;1797;51.844;7.684;2023-05-07T06:10:38;3.63;;;2.75;;
3565;SDS011;1797;51.844;7.684;2023-05-07T06:13:04;6.50;;;3.10;;
3565;SDS011;1797;51.844;7.684;2023-05-07T06:15:30;2.83;;;2.27;;
3565;SDS011;1797;51.844;7.684;2023-05-07T06:17:55;5.33;;;3.60;;
3565;SDS011;1797;51.844;7.684;2023-05-07T06:20:22;4.30;;;2.35;;
3565;SDS011;1797;51.844;7.684;2023-05-07T06:22:48;5.70;;;3.53;;
3565;SDS011;1797;51.844;7.684;2023-05-07T06:25:13;6.40;;;3.10;;
3565;SDS011;1797;51.844;7.684;2023-05-07T06:27:39;7.50;;;2.97;;
3565;SDS011;1797;51.844;7.684;2023-05-07T06:30:05;3.60;;;2.13;;
3565;SDS011;1797;51.844;7.684;2023-05-07T06:32:32;3.13;;;2.25;;
3565;SDS011;1797;51.844;7.684;2023-05-07T06:34:57;3.43;;;2.90;;
3565;SDS011;1797;51.844;7.684;2023-05-07T06:37:23;3.37;;;3.17;;
3565;SDS011;1797;51.844;7.684;2023-05-07T06:39:49;5.47;;;3.17;;
3565;SDS011;1797;51.844;7.684;2023-05-07T06:42:14;10.40;;;3.03;;
3565;SDS011;1797;51.844;7.684;2023-05-07T06:44:40;7.97;;;3.30;;
3565;SDS011;1797;51.844;7.684;2023-05-07T06:47:05;7.30;;;2.00;;
3565;SDS011;1797;51.844;7.684;2023-05-07T06:49:31;5.30;;;3.13;;
3565;SDS011;1797;51.844;7.684;2023-05-07T06:51:57;2.70;;;2.20;;
3565;SDS011;1797;51.844;7.684;2023-05-07T06:54:23;4.87;;;3.20;;
3565;SDS011;1797;51.844;7.684;2023-05-07T06:56:48;3.70;;;2.53;;
3565;SDS011;1797;51.844;7.684;2023-05-07T06:59:14;4.73;;;2.73;;
3565;SDS011;1797;51.844;7.684;2023-05-07T07:01:40;4.18;;;2.50;;
3565;SDS011;1797;51.844;7.684;2023-05-07T07:04:06;6.97;;;3.60;;
3565;SDS011;1797;51.844;7.684;2023-05-07T07:06:31;7.77;;;4.67;;
3565;SDS011;1797;51.844;7.684;2023-05-07T07:08:57;6.73;;;3.27;;
3565;SDS011;1797;51.844;7.684;2023-05-07T07:11:23;5.93;;;3.35;;
3565;SDS011;1797;51.844;7.684;2023-05-07T07:13:49;4.80;;;4.10;;
3565;SDS011;1797;51.844;7.684;2023-05-07T07:16:15;3.40;;;2.73;;
3565;SDS011;1797;51.844;7.684;2023-05-07T07:18:41;9.32;;;3.80;;
3565;SDS011;1797;51.844;7.684;2023-05-07T07:21:07;4.18;;;2.22;;
3565;SDS011;1797;51.844;7.684;2023-05-07T07:23:32;4.50;;;3.20;;
3565;SDS011;1797;51.844;7.684;2023-05-07T07:25:58;5.60;;;3.10;;
3565;SDS011;1797;51.844;7.684;2023-05-07T07:28:23;3.50;;;2.60;;
3565;SDS011;1797;51.844;7.684;2023-05-07T07:30:49;4.63;;;3.15;;
3565;SDS011;1797;51.844;7.684;2023-05-07T07:33:15;4.78;;;2.90;;
3565;SDS011;1797;51.844;7.684;2023-05-07T07:35:41;5.88;;;2.60;;
3565;SDS011;1797;51.844;7.684;2023-05-07T07:38:06;5.50;;;4.28;;
3565;SDS011;1797;51.844;7.684;2023-05-07T07:40:34;7.47;;;3.28;;
3565;SDS011;1797;51.844;7.684;2023-05-07T07:43:00;4.00;;;3.15;;
3565;SDS011;1797;51.844;7.684;2023-05-07T07:45:26;3.75;;;1.98;;
3565;SDS011;1797;51.844;7.684;2023-05-07T07:47:52;8.77;;;3.57;;
3565;SDS011;1797;51.844;7.684;2023-05-07T07:50:17;11.73;;;3.50;;
3565;SDS011;1797;51.844;7.684;2023-05-07T07:52:43;11.77;;;3.63;;
3565;SDS011;1797;51.844;7.684;2023-05-07T07:55:09;4.72;;;3.25;;
3565;SDS011;1797;51.844;7.684;2023-05-07T07:57:35;6.10;;;4.20;;
3565;SDS011;1797;51.844;7.684;2023-05-07T08:00:01;5.30;;;3.20;;
3565;SDS011;1797;51.844;7.684;2023-05-07T08:02:27;5.45;;;2.58;;
3565;SDS011;1797;51.844;7.684;2023-05-07T08:04:52;9.03;;;3.60;;
3565;SDS011;1797;51.844;7.684;2023-05-07T08:07:18;8.77;;;3.20;;
3565;SDS011;1797;51.844;7.684;2023-05-07T08:09:45;5.63;;;2.10;;
3565;SDS011;1797;51.844;7.684;2023-05-07T08:12:11;4.72;;;3.53;;
3565;SDS011;1797;51.844;7.684;2023-05-07T08:14:37;7.20;;;3.22;;
3565;SDS011;1797;51.844;7.684;2023-05-07T08:17:03;3.93;;;2.87;;
3565;SDS011;1797;51.844;7.684;2023-05-07T08:19:28;11.00;;;3.17;;
3565;SDS011;1797;51.844;7.684;2023-05-07T08:21:54;4.38;;;2.63;;
3565;SDS011;1797;51.844;7.684;2023-05-07T08:24:20;5.50;;;3.33;;
3565;SDS011;1797;51.844;7.684;2023-05-07T08:26:46;6.10;;;3.10;;
3565;SDS011;1797;51.844;7.684;2023-05-07T08:29:11;6.27;;;3.10;;
3565;SDS011;1797;51.844;7.684;2023-05-07T08:31:37;4.17;;;2.57;;
3565;SDS011;1797;51.844;7.684;2023-05-07T08:34:04;8.98;;;3.15;;
3565;SDS011;1797;51.844;7.684;2023-05-07T08:36:31;8.30;;;4.05;;
3565;SDS011;1797;51.844;7.684;2023-05-07T08:38:57;3.15;;;2.40;;
3565;SDS011;1797;51.844;7.684;2023-05-07T08:41:22;6.23;;;1.93;;
3565;SDS011;1797;51.844;7.684;2023-05-07T08:43:48;5.30;;;2.17;;
3565;SDS011;1797;51.844;7.684;2023-05-07T08:46:18;15.00;;;3.72;;
3565;SDS011;1797;51.844;7.684;2023-05-07T08:48:47;5.27;;;4.10;;
3565;SDS011;1797;51.844;7.684;2023-05-07T08:51:17;3.53;;;3.22;;
3565;SDS011;1797;51.844;7.684;2023-05-07T08:53:45;7.17;;;4.80;;
3565;SDS011;1797;51.844;7.684;2023-05-07T08:56:13;3.55;;;3.10;;
3565;SDS011;1797;51.844;7.684;2023-05-07T08:58:43;8.18;;;4.30;;
3565;SDS011;1797;51.844;7.684;2023-05-07T09:01:09;4.20;;;2.80;;
3565;SDS011;1797;51.844;7.684;2023-05-07T09:03:38;3.22;;;2.92;;
3565;SDS011;1797;51.844;7.684;2023-05-07T09:06:05;10.00;;;4.15;;
3565;SDS011;1797;51.844;7.684;2023-05-07T09:08:32;4.65;;;2.60;;
3565;SDS011;1797;51.844;7.684;2023-05-07T09:10:58;5.50;;;3.38;;
3565;SDS011;1797;51.844;7.684;2023-05-07T09:13:23;5.70;;;5.20;;
3565;SDS011;1797;51.844;7.684;2023-05-07T09:15:49;8.40;;;3.90;;
3565;SDS011;1797;51.844;7.684;2023-05-07T09:18:15;2.50;;;1.88;;
3565;SDS011;1797;51.844;7.684;2023-05-07T09:20:40;6.07;;;4.43;;
3565;SDS011;1797;51.844;7.684;2023-05-07T09:23:06;6.07;;;3.67;;
3565;SDS011;1797;51.844;7.684;2023-05-07T09:25:33;7.93;;;3.03;;
3565;SDS011;1797;51.844;7.684;2023-05-07T09:28:00;7.40;;;3.30;;
3565;SDS011;1797;51.844;7.684;2023-05-07T09:30:30;4.85;;;3.08;;
3565;SDS011;1797;51.844;7.684;2023-05-07T09:32:57;2.55;;;2.35;;
3565;SDS011;1797;51.844;7.684;2023-05-07T09:35:24;5.80;;;3.90;;
3565;SDS011;1797;51.844;7.684;2023-05-07T09:37:52;9.00;;;3.90;;
3565;SDS011;1797;51.844;7.684;2023-05-07T09:40:20;5.28;;;3.15;;
3565;SDS011;1797;51.844;7.684;2023-05-07T09:42:47;6.03;;;2.70;;
3565;SDS011;1797;51.844;7.684;2023-05-07T09:45:14;11.10;;;3.80;;
3565;SDS011;1797;51.844;7.684;2023-05-07T09:47:40;6.50;;;4.03;;
3565;SDS011;1797;51.844;7.684;2023-05-07T09:50:09;5.67;;;2.83;;
3565;SDS011;1797;51.844;7.684;2023-05-07T09:52:37;4.93;;;3.50;;
3565;SDS011;1797;51.844;7.684;2023-05-07T09:55:05;7.25;;;5.03;;
3565;SDS011;1797;51.844;7.684;2023-05-07T09:57:32;8.82;;;2.95;;
3565;SDS011;1797;51.844;7.684;2023-05-07T09:59:58;4.75;;;3.35;;
3565;SDS011;1797;51.844;7.684;2023-05-07T10:02:27;3.10;;;2.88;;
3565;SDS011;1797;51.844;7.684;2023-05-07T10:04:56;5.85;;;2.85;;
3565;SDS011;1797;51.844;7.684;2023-05-07T10:07:23;2.15;;;1.92;;
3565;SDS011;1797;51.844;7.684;2023-05-07T10:09:50;5.17;;;3.60;;
3565;SDS011;1797;51.844;7.684;2023-05-07T10:12:16;5.05;;;3.30;;
3565;SDS011;1797;51.844;7.684;2023-05-07T10:14:43;2.65;;;1.83;;
3565;SDS011;1797;51.844;7.684;2023-05-07T10:17:11;4.07;;;2.83;;
3565;SDS011;1797;51.844;7.684;2023-05-07T10:19:37;8.05;;;3.00;;
3565;SDS011;1797;51.844;7.684;2023-05-07T10:22:05;10.25;;;2.97;;
3565;SDS011;1797;51.844;7.684;2023-05-07T10:24:33;5.65;;;3.10;;
3565;SDS011;1797;51.844;7.684;2023-05-07T10:27:00;7.07;;;2.40;;
3565;SDS011;1797;51.844;7.684;2023-05-07T10:32:27;9.45;;;2.65;;
3565;SDS011;1797;51.844;7.684;2023-05-07T10:34:56;4.97;;;3.40;;
3565;SDS011;1797;51.844;7.684;2023-05-07T10:37:25;6.32;;;3.17;;
3565;SDS011;1797;51.844;7.684;2023-05-07T10:39:52;6.00;;;3.38;;
3565;SDS011;1797;51.844;7.684;2023-05-07T10:42:18;3.22;;;2.10;;
3565;SDS011;1797;51.844;7.684;2023-05-07T10:44:43;4.50;;;3.60;;
3565;SDS011;1797;51.844;7.684;2023-05-07T10:47:13;4.23;;;3.57;;
3565;SDS011;1797;51.844;7.684;2023-05-07T10:54:42;3.93;;;2.60;;
3565;SDS011;1797;51.844;7.684;2023-05-07T10:59:56;4.20;;;3.53;;
3565;SDS011;1797;51.844;7.684;2023-05-07T11:02:22;4.07;;;2.92;;
3565;SDS011;1797;51.844;7.684;2023-05-07T11:07:43;2.03;;;1.88;;
3565;SDS011;1797;51.844;7.684;2023-05-07T11:10:20;5.03;;;2.33;;
3565;SDS011;1797;51.844;7.684;2023-05-07T11:12:46;6.65;;;2.25;;
3565;SDS011;1797;51.844;7.684;2023-05-07T11:15:13;5.23;;;3.07;;
3565;SDS011;1797;51.844;7.684;2023-05-07T11:17:54;3.50;;;2.50;;
3565;SDS011;1797;51.844;7.684;2023-05-07T11:26:09;2.60;;;2.20;;
3565;SDS011;1797;51.844;7.684;2023-05-07T11:28:36;2.20;;;2.05;;
3565;SDS011;1797;51.844;7.684;2023-05-07T11:31:03;3.90;;;1.77;;
3565;SDS011;1797;51.844;7.684;2023-05-07T11:33:32;8.00;;;3.38;;
3565;SDS011;1797;51.844;7.684;2023-05-07T11:35:59;5.38;;;2.70;;
3565;SDS011;1797;51.844;7.684;2023-05-07T11:38:27;4.47;;;3.15;;
3565;SDS011;1797;51.844;7.684;2023-05-07T11:40:55;4.03;;;2.53;;
3565;SDS011;1797;51.844;7.684;2023-05-07T11:43:24;2.50;;;2.30;;
3565;SDS011;1797;51.844;7.684;2023-05-07T11:45:49;2.70;;;2.17;;
3565;SDS011;1797;51.844;7.684;2023-05-07T11:48:16;2.33;;;2.13;;
3565;SDS011;1797;51.844;7.684;2023-05-07T11:53:17;2.20;;;2.00;;
3565;SDS011;1797;51.844;7.684;2023-05-07T11:55:44;1.70;;;1.60;;
3565;SDS011;1797;51.844;7.684;2023-05-07T11:58:10;2.63;;;2.47;;
3565;SDS011;1797;51.844;7.684;2023-05-07T12:00:37;2.03;;;1.87;;
3565;SDS011;1797;51.844;7.684;2023-05-07T12:03:03;2.53;;;1.87;;
3565;SDS011;1797;51.844;7.684;2023-05-07T12:05:30;5.10;;;2.53;;
3565;SDS011;1797;51.844;7.684;2023-05-07T12:07:58;2.95;;;2.47;;
3565;SDS011;1797;51.844;7.684;2023-05-07T12:10:24;1.73;;;1.63;;
3565;SDS011;1797;51.844;7.684;2023-05-07T12:12:50;3.78;;;1.90;;
3565;SDS011;1797;51.844;7.684;2023-05-07T12:15:16;2.73;;;2.00;;
3565;SDS011;1797;51.844;7.684;2023-05-07T12:17:42;4.75;;;2.78;;
3565;SDS011;1797;51.844;7.684;2023-05-07T12:20:08;5.82;;;2.30;;
3565;SDS011;1797;51.844;7.684;2023-05-07T12:22:35;2.45;;;2.25;;
3565;SDS011;1797;51.844;7.684;2023-05-07T12:25:01;3.22;;;2.35;;
3565;SDS011;1797;51.844;7.684;2023-05-07T12:27:27;4.50;;;2.72;;
3565;SDS011;1797;51.844;7.684;2023-05-07T12:29:53;2.47;;;1.95;;
3565;SDS011;1797;51.844;7.684;2023-05-07T12:32:19;1.27;;;1.17;;
3565;SDS011;1797;51.844;7.684;2023-05-07T12:34:46;6.60;;;2.30;;
3565;SDS011;1797;51.844;7.684;2023-05-07T12:37:15;2.88;;;2.38;;
3565;SDS011;1797;51.844;7.684;2023-05-07T12:40:02;3.60;;;2.20;;
3565;SDS011;1797;51.844;7.684;2023-05-07T12:42:32;6.93;;;2.28;;
3565;SDS011;1797;51.844;7.684;2023-05-07T12:45:00;7.15;;;2.38;;
3565;SDS011;1797;51.844;7.684;2023-05-07T12:47:33;3.80;;;1.90;;
3565;SDS011;1797;51.844;7.684;2023-05-07T12:49:58;2.07;;;1.67;;
3565;SDS011;1797;51.844;7.684;2023-05-07T12:52:24;3.17;;;2.85;;
3565;SDS011;1797;51.844;7.684;2023-05-07T12:54:50;2.65;;;2.40;;
3565;SDS011;1797;51.844;7.684;2023-05-07T12:57:16;3.50;;;2.40;;
3565;SDS011;1797;51.844;7.684;2023-05-07T12:59:44;3.30;;;1.60;;
3565;SDS011;1797;51.844;7.684;2023-05-07T13:02:10;2.43;;;2.23;;
3565;SDS011;1797;51.844;7.684;2023-05-07T13:04:36;2.20;;;2.00;;
3565;SDS011;1797;51.844;7.684;2023-05-07T13:07:02;3.83;;;2.42;;
3565;SDS011;1797;51.844;7.684;2023-05-07T13:09:28;3.10;;;2.30;;
3565;SDS011;1797;51.844;7.684;2023-05-07T13:11:57;3.05;;;2.20;;
3565;SDS011;1797;51.844;7.684;2023-05-07T13:14:26;1.73;;;1.60;;
3565;SDS011;1797;51.844;7.684;2023-05-07T13:16:52;2.90;;;1.52;;
3565;SDS011;1797;51.844;7.684;2023-05-07T13:19:17;3.37;;;1.50;;
3565;SDS011;1797;51.844;7.684;2023-05-07T13:21:43;3.70;;;2.25;;
3565;SDS011;1797;51.844;7.684;2023-05-07T13:24:08;4.97;;;2.17;;
3565;SDS011;1797;51.844;7.684;2023-05-07T13:26:34;2.70;;;2.10;;
3565;SDS011;1797;51.844;7.684;2023-05-07T13:29:00;2.47;;;1.30;;
3565;SDS011;1797;51.844;7.684;2023-05-07T13:31:25;3.30;;;2.37;;
3565;SDS011;1797;51.844;7.684;2023-05-07T13:33:51;5.45;;;1.95;;
3565;SDS011;1797;51.844;7.684;2023-05-07T13:36:17;1.90;;;1.80;;
3565;SDS011;1797;51.844;7.684;2023-05-07T13:38:43;1.60;;;1.50;;
3565;SDS011;1797;51.844;7.684;2023-05-07T13:41:08;3.20;;;1.60;;
3565;SDS011;1797;51.844;7.684;2023-05-07T13:43:34;3.50;;;1.90;;
3565;SDS011;1797;51.844;7.684;2023-05-07T13:46:00;2.70;;;2.10;;
3565;SDS011;1797;51.844;7.684;2023-05-07T13:48:26;1.75;;;1.63;;
3565;SDS011;1797;51.844;7.684;2023-05-07T13:50:51;7.30;;;2.30;;
3565;SDS011;1797;51.844;7.684;2023-05-07T13:53:17;3.63;;;2.30;;
3565;SDS011;1797;51.844;7.684;2023-05-07T13:55:43;2.97;;;1.63;;
3565;SDS011;1797;51.844;7.684;2023-05-07T13:58:10;2.60;;;1.10;;
3565;SDS011;1797;51.844;7.684;2023-05-07T14:00:36;3.70;;;2.42;;
3565;SDS011;1797;51.844;7.684;2023-05-07T14:03:02;4.75;;;3.08;;
3565;SDS011;1797;51.844;7.684;2023-05-07T14:05:29;4.20;;;1.90;;
3565;SDS011;1797;51.844;7.684;2023-05-07T14:07:55;7.50;;;2.60;;
3565;SDS011;1797;51.844;7.684;2023-05-07T14:10:22;3.60;;;1.50;;
3565;SDS011;1797;51.844;7.684;2023-05-07T14:12:48;7.30;;;2.10;;
3565;SDS011;1797;51.844;7.684;2023-05-07T14:15:14;1.50;;;1.40;;
3565;SDS011;1797;51.844;7.684;2023-05-07T14:17:41;4.38;;;2.05;;
3565;SDS011;1797;51.844;7.684;2023-05-07T14:20:07;1.80;;;1.70;;
3565;SDS011;1797;51.844;7.684;2023-05-07T14:22:33;2.70;;;1.90;;
3565;SDS011;1797;51.844;7.684;2023-05-07T14:24:59;1.90;;;1.20;;
3565;SDS011;1797;51.844;7.684;2023-05-07T14:27:24;2.60;;;2.00;;
3565;SDS011;1797;51.844;7.684;2023-05-07T14:29:50;1.38;;;1.20;;
3565;SDS011;1797;51.844;7.684;2023-05-07T14:32:16;2.40;;;1.40;;
3565;SDS011;1797;51.844;7.684;2023-05-07T14:34:45;3.58;;;2.38;;
3565;SDS011;1797;51.844;7.684;2023-05-07T14:37:11;2.40;;;1.50;;
3565;SDS011;1797;51.844;7.684;2023-05-07T14:39:37;1.60;;;1.50;;
3565;SDS011;1797;51.844;7.684;2023-05-07T14:42:02;5.40;;;1.80;;
3565;SDS011;1797;51.844;7.684;2023-05-07T14:44:28;5.00;;;2.28;;
3565;SDS011;1797;51.844;7.684;2023-05-07T14:46:54;1.60;;;0.83;;
3565;SDS011;1797;51.844;7.684;2023-05-07T14:49:22;2.73;;;1.17;;
3565;SDS011;1797;51.844;7.684;2023-05-07T14:51:48;4.15;;;1.90;;
3565;SDS011;1797;51.844;7.684;2023-05-07T14:54:14;1.92;;;1.77;;
3565;SDS011;1797;51.844;7.684;2023-05-07T14:56:40;3.80;;;2.67;;
3565;SDS011;1797;51.844;7.684;2023-05-07T14:59:06;2.10;;;1.60;;
3565;SDS011;1797;51.844;7.684;2023-05-07T15:01:32;1.90;;;1.20;;
3565;SDS011;1797;51.844;7.684;2023-05-07T15:03:59;3.28;;;1.73;;
3565;SDS011;1797;51.844;7.684;2023-05-07T15:06:25;2.60;;;1.75;;
3565;SDS011;1797;51.844;7.684;2023-05-07T15:08:51;5.65;;;1.95;;
3565;SDS011;1797;51.844;7.684;2023-05-07T15:11:17;2.92;;;1.70;;
3565;SDS011;1797;51.844;7.684;2023-05-07T15:13:43;3.10;;;1.80;;
3565;SDS011;1797;51.844;7.684;2023-05-07T15:16:08;1.30;;;1.20;;
3565;SDS011;1797;51.844;7.684;2023-05-07T15:18:34;2.70;;;2.05;;
3565;SDS011;1797;51.844;7.684;2023-05-07T15:21:00;2.40;;;1.40;;
3565;SDS011;1797;51.844;7.684;2023-05-07T15:23:25;2.13;;;1.27;;
3565;SDS011;1797;51.844;7.684;2023-05-07T15:25:51;1.90;;;1.50;;
3565;SDS011;1797;51.844;7.684;2023-05-07T15:28:18;2.30;;;2.10;;
3565;SDS011;1797;51.844;7.684;2023-05-07T15:30:43;2.30;;;2.05;;